createdAt,value
2018-11-29T00:01:05.416Z,1013.44
2018-11-29T00:02:14.788Z,1013.3
2018-11-29T00:03:24.684Z,1013.26
2018-11-29T00:04:33.861Z,1013.24
2018-11-29T00:05:43.313Z,1013.25
2018-11-29T00:06:52.751Z,1013.35
2018-11-29T00:08:02.223Z,1013.29
2018-11-29T00:09:11.942Z,1013.28
2018-11-29T00:10:21.456Z,1013.31
2018-11-29T00:11:30.821Z,1013.31
2018-11-29T00:12:40.535Z,1013.32
2018-11-29T00:13:49.676Z,1013.33
2018-11-29T00:14:58.921Z,1013.29
2018-11-29T00:16:08.327Z,1013.28
2018-11-29T00:17:17.476Z,1013.25
2018-11-29T00:18:27.181Z,1013.19
2018-11-29T00:19:37.053Z,1013.18
2018-11-29T00:20:46.885Z,1013.21
2018-11-29T00:21:56.016Z,1013.14
2018-11-29T00:23:05.951Z,1013.17
2018-11-29T00:24:15.350Z,1013.23
2018-11-29T00:25:24.470Z,1013.24
2018-11-29T00:26:34.072Z,1013.26
2018-11-29T00:27:43.419Z,1013.27
2018-11-29T00:28:53.684Z,1013.27
2018-11-29T00:30:02.894Z,1013.32
2018-11-29T00:31:12.526Z,1013.3
2018-11-29T00:32:22.257Z,1013.29
2018-11-29T00:33:31.390Z,1013.3
2018-11-29T00:34:40.807Z,1013.29
2018-11-29T00:35:50.221Z,1013.37
2018-11-29T00:36:59.330Z,1013.25
2018-11-29T00:38:10.278Z,1013.26
2018-11-29T00:39:19.723Z,1013.24
2018-11-29T00:40:29.086Z,1013.23
2018-11-29T00:41:38.281Z,1013.28
2018-11-29T00:42:48.005Z,1013.27
2018-11-29T00:43:57.526Z,1013.29
2018-11-29T00:45:07.317Z,1013.26
2018-11-29T00:46:16.550Z,1013.27
2018-11-29T00:47:25.622Z,1013.34
2018-11-29T00:48:35.307Z,1013.24
2018-11-29T00:49:44.681Z,1013.28
2018-11-29T00:50:54.041Z,1013.36
2018-11-29T00:52:03.435Z,1013.32
2018-11-29T00:53:13.032Z,1013.3
2018-11-29T00:54:22.794Z,1013.34
2018-11-29T00:55:31.572Z,1013.3
2018-11-29T00:56:40.865Z,1013.3
2018-11-29T00:57:50.476Z,1013.26
2018-11-29T00:58:59.800Z,1013.24
2018-11-29T01:00:09.016Z,1013.25
2018-11-29T01:01:18.783Z,1013.29
2018-11-29T01:02:27.874Z,1013.29
2018-11-29T01:03:37.145Z,1013.31
2018-11-29T01:04:46.214Z,1013.35
2018-11-29T01:05:55.030Z,1013.37
2018-11-29T01:07:04.896Z,1013.34
2018-11-29T01:08:14.578Z,1013.36
2018-11-29T01:09:24.212Z,1013.36
2018-11-29T01:10:33.358Z,1013.29
2018-11-29T01:11:42.940Z,1013.37
2018-11-29T01:12:52.067Z,1013.39
2018-11-29T01:14:01.737Z,1013.37
2018-11-29T01:15:11.546Z,1013.32
2018-11-29T01:16:20.910Z,1013.34
2018-11-29T01:17:30.051Z,1013.38
2018-11-29T01:18:39.446Z,1013.35
2018-11-29T01:19:48.745Z,1013.4
2018-11-29T01:20:58.093Z,1013.38
2018-11-29T01:22:07.801Z,1013.34
2018-11-29T01:23:17.232Z,1013.35
2018-11-29T01:24:26.366Z,1013.39
2018-11-29T01:25:35.769Z,1013.37
2018-11-29T01:26:45.410Z,1013.34
2018-11-29T01:27:55.306Z,1013.3
2018-11-29T01:29:04.655Z,1013.3
2018-11-29T01:30:14.234Z,1013.27
2018-11-29T01:31:23.493Z,1013.23
2018-11-29T01:32:33.188Z,1013.26
2018-11-29T01:33:42.779Z,1013.25
2018-11-29T01:34:52.177Z,1013.29
2018-11-29T01:36:01.515Z,1013.33
2018-11-29T01:37:10.892Z,1013.35
2018-11-29T01:38:20.881Z,1013.33
2018-11-29T01:39:29.850Z,1013.31
2018-11-29T01:40:38.958Z,1013.28
2018-11-29T01:41:48.028Z,1013.29
2018-11-29T01:42:57.765Z,1013.32
2018-11-29T01:44:06.876Z,1013.32
2018-11-29T01:45:15.957Z,1013.34
2018-11-29T01:46:25.342Z,1013.41
2018-11-29T01:47:34.700Z,1013.37
2018-11-29T01:48:43.625Z,1013.37
2018-11-29T01:49:53.028Z,1013.45
2018-11-29T01:51:02.667Z,1013.35
2018-11-29T01:52:12.372Z,1013.34
2018-11-29T01:53:22.156Z,1013.29
2018-11-29T01:54:31.478Z,1013.28
2018-11-29T01:55:40.523Z,1013.25
2018-11-29T01:56:49.632Z,1013.24
2018-11-29T01:57:59.337Z,1013.25
2018-11-29T01:59:08.728Z,1013.27
2018-11-29T02:00:18.091Z,1013.23
2018-11-29T02:01:27.982Z,1013.25
2018-11-29T02:02:37.095Z,1013.26
2018-11-29T02:03:46.794Z,1013.23
2018-11-29T02:04:56.933Z,1013.17
2018-11-29T02:06:06.815Z,1013.2
2018-11-29T02:07:15.956Z,1013.24
2018-11-29T02:08:25.221Z,1013.16
2018-11-29T02:09:34.543Z,1013.19
2018-11-29T02:10:43.612Z,1013.23
2018-11-29T02:11:52.965Z,1013.21
2018-11-29T02:13:02.289Z,1013.2
2018-11-29T02:14:11.394Z,1013.21
2018-11-29T02:15:20.626Z,1013.2
2018-11-29T02:16:30.563Z,1013.19
2018-11-29T02:17:39.692Z,1013.15
2018-11-29T02:18:49.138Z,1013.19
2018-11-29T02:19:58.463Z,1013.26
2018-11-29T02:21:08.264Z,1013.21
2018-11-29T02:22:17.802Z,1013.21
2018-11-29T02:23:27.245Z,1013.17
2018-11-29T02:24:36.636Z,1013.11
2018-11-29T02:25:46.023Z,1013.14
2018-11-29T02:26:55.194Z,1013.16
2018-11-29T02:28:04.597Z,1013.12
2018-11-29T02:29:14.059Z,1013.07
2018-11-29T02:30:23.280Z,1013.08
2018-11-29T02:31:32.664Z,1013.1
2018-11-29T02:32:42.374Z,1013.12
2018-11-29T02:33:52.052Z,1013.1
2018-11-29T02:35:01.202Z,1013.09
2018-11-29T02:36:10.157Z,1013.05
2018-11-29T02:37:19.543Z,1013.08
2018-11-29T02:38:29.374Z,1013.05
2018-11-29T02:39:39.303Z,1013.1
2018-11-29T02:40:48.234Z,1013.05
2018-11-29T02:41:57.796Z,1013.07
2018-11-29T02:43:07.294Z,1012.98
2018-11-29T02:44:16.729Z,1012.96
2018-11-29T02:45:25.857Z,1012.98
2018-11-29T02:46:35.515Z,1012.93
2018-11-29T02:47:44.607Z,1012.93
2018-11-29T02:48:54.451Z,1012.93
2018-11-29T02:50:04.342Z,1012.93
2018-11-29T02:51:13.479Z,1012.91
2018-11-29T02:52:23.334Z,1012.91
2018-11-29T02:53:33.319Z,1012.91
2018-11-29T02:54:42.387Z,1012.91
2018-11-29T02:55:51.669Z,1012.91
2018-11-29T02:57:01.462Z,1012.91
2018-11-29T02:58:10.739Z,1012.87
2018-11-29T02:59:20.463Z,1012.82
2018-11-29T03:00:29.608Z,1012.82
2018-11-29T03:01:39.565Z,1012.81
2018-11-29T03:02:49.616Z,1012.74
2018-11-29T03:03:58.420Z,1012.75
2018-11-29T03:05:07.752Z,1012.74
2018-11-29T03:06:17.369Z,1012.69
2018-11-29T03:07:26.749Z,1012.67
2018-11-29T03:08:36.186Z,1012.71
2018-11-29T03:09:45.597Z,1012.65
2018-11-29T03:10:55.302Z,1012.65
2018-11-29T03:12:05.058Z,1012.66
2018-11-29T03:13:14.422Z,1012.68
2018-11-29T03:14:23.787Z,1012.68
2018-11-29T03:15:33.360Z,1012.64
2018-11-29T03:16:42.685Z,1012.69
2018-11-29T03:17:52.157Z,1012.7
2018-11-29T03:19:01.297Z,1012.71
2018-11-29T03:20:11.247Z,1012.7
2018-11-29T03:21:20.700Z,1012.72
2018-11-29T03:22:30.424Z,1012.72
2018-11-29T03:23:39.641Z,1012.71
2018-11-29T03:24:48.730Z,1012.71
2018-11-29T03:25:58.778Z,1012.66
2018-11-29T03:27:08.199Z,1012.71
2018-11-29T03:28:17.529Z,1012.7
2018-11-29T03:29:27.417Z,1012.74
2018-11-29T03:30:37.036Z,1012.73
2018-11-29T03:31:47.061Z,1012.81
2018-11-29T03:32:56.941Z,1012.8
2018-11-29T03:34:06.702Z,1012.86
2018-11-29T03:35:16.369Z,1012.85
2018-11-29T03:36:25.973Z,1012.8
2018-11-29T03:37:35.642Z,1012.79
2018-11-29T03:38:45.232Z,1012.78
2018-11-29T03:39:54.277Z,1012.77
2018-11-29T03:41:04.018Z,1012.79
2018-11-29T03:42:13.048Z,1012.8
2018-11-29T03:43:22.637Z,1012.78
2018-11-29T03:44:32.224Z,1012.8
2018-11-29T03:45:41.799Z,1012.8
2018-11-29T03:46:51.561Z,1012.78
2018-11-29T03:48:00.944Z,1012.8
2018-11-29T03:49:09.996Z,1012.81
2018-11-29T03:50:19.819Z,1012.83
2018-11-29T03:51:29.291Z,1012.76
2018-11-29T03:52:39.347Z,1012.78
2018-11-29T03:53:48.725Z,1012.76
2018-11-29T03:54:58.570Z,1012.78
2018-11-29T03:56:08.427Z,1012.74
2018-11-29T03:57:18.185Z,1012.73
2018-11-29T03:58:27.309Z,1012.72
2018-11-29T03:59:37.477Z,1012.77
2018-11-29T04:00:46.771Z,1012.77
2018-11-29T04:01:56.358Z,1012.8
2018-11-29T04:03:05.692Z,1012.76
2018-11-29T04:04:15.282Z,1012.76
2018-11-29T04:05:24.897Z,1012.75
2018-11-29T04:06:35.791Z,1012.73
2018-11-29T04:07:45.117Z,1012.75
2018-11-29T04:08:54.925Z,1012.79
2018-11-29T04:10:04.254Z,1012.77
2018-11-29T04:11:13.254Z,1012.74
2018-11-29T04:12:22.594Z,1012.71
2018-11-29T04:13:31.963Z,1012.71
2018-11-29T04:14:41.299Z,1012.74
2018-11-29T04:15:50.871Z,1012.71
2018-11-29T04:17:00.205Z,1012.72
2018-11-29T04:18:09.525Z,1012.7
2018-11-29T04:19:18.572Z,1012.68
2018-11-29T04:20:28.212Z,1012.72
2018-11-29T04:21:37.830Z,1012.69
2018-11-29T04:22:47.814Z,1012.75
2018-11-29T04:23:57.132Z,1012.71
2018-11-29T04:25:06.446Z,1012.7
2018-11-29T04:26:16.306Z,1012.69
2018-11-29T04:27:26.291Z,1012.69
2018-11-29T04:28:35.897Z,1012.65
2018-11-29T04:29:44.950Z,1012.61
2018-11-29T04:30:54.526Z,1012.59
2018-11-29T04:32:04.296Z,1012.59
2018-11-29T04:33:13.475Z,1012.53
2018-11-29T04:34:23.102Z,1012.53
2018-11-29T04:35:32.446Z,1012.51
2018-11-29T04:36:42.059Z,1012.49
2018-11-29T04:37:51.616Z,1012.51
2018-11-29T04:39:01.139Z,1012.47
2018-11-29T04:40:10.403Z,1012.5
2018-11-29T04:41:19.766Z,1012.45
2018-11-29T04:42:29.646Z,1012.43
2018-11-29T04:43:39.585Z,1012.43
2018-11-29T04:44:49.182Z,1012.39
2018-11-29T04:45:58.601Z,1012.36
2018-11-29T04:47:07.638Z,1012.37
2018-11-29T04:48:16.678Z,1012.31
2018-11-29T04:49:26.629Z,1012.34
2018-11-29T04:50:35.914Z,1012.31
2018-11-29T04:51:45.830Z,1012.29
2018-11-29T04:52:55.016Z,1012.29
2018-11-29T04:54:04.634Z,1012.27
2018-11-29T04:55:14.388Z,1012.27
2018-11-29T04:56:23.471Z,1012.26
2018-11-29T04:57:33.090Z,1012.25
2018-11-29T04:58:41.999Z,1012.29
2018-11-29T04:59:52.078Z,1012.26
2018-11-29T05:01:01.676Z,1012.27
2018-11-29T05:02:11.954Z,1012.22
2018-11-29T05:03:20.842Z,1012.25
2018-11-29T05:04:30.681Z,1012.26
2018-11-29T05:05:40.546Z,1012.26
2018-11-29T05:06:49.660Z,1012.22
2018-11-29T05:07:58.974Z,1012.24
2018-11-29T05:09:08.255Z,1012.24
2018-11-29T05:10:18.046Z,1012.21
2018-11-29T05:11:27.377Z,1012.23
2018-11-29T05:12:36.493Z,1012.18
2018-11-29T05:13:45.819Z,1012.19
2018-11-29T05:14:54.680Z,1012.18
2018-11-29T05:16:04.270Z,1012.16
2018-11-29T05:17:13.837Z,1012.17
2018-11-29T05:18:22.680Z,1012.13
2018-11-29T05:19:32.923Z,1012.15
2018-11-29T05:20:42.253Z,1012.12
2018-11-29T05:21:51.921Z,1012.12
2018-11-29T05:23:01.246Z,1012.06
2018-11-29T05:24:10.746Z,1012.03
2018-11-29T05:25:20.612Z,1011.97
2018-11-29T05:26:29.918Z,1011.98
2018-11-29T05:27:39.307Z,1011.89
2018-11-29T05:28:48.590Z,1011.97
2018-11-29T05:29:57.864Z,1011.9
2018-11-29T05:31:07.194Z,1011.87
2018-11-29T05:32:16.608Z,1011.88
2018-11-29T05:33:26.431Z,1011.9
2018-11-29T05:34:35.547Z,1011.87
2018-11-29T05:35:44.940Z,1011.84
2018-11-29T05:36:54.028Z,1011.85
2018-11-29T05:38:03.327Z,1011.87
2018-11-29T05:39:12.666Z,1011.92
2018-11-29T05:40:22.042Z,1011.92
2018-11-29T05:41:31.649Z,1011.95
2018-11-29T05:42:41.314Z,1012
2018-11-29T05:43:50.608Z,1011.96
2018-11-29T05:44:59.786Z,1011.98
2018-11-29T05:46:09.393Z,1011.98
2018-11-29T05:47:18.813Z,1012
2018-11-29T05:48:28.348Z,1012.03
2018-11-29T05:49:37.419Z,1012.05
2018-11-29T05:50:47.308Z,1011.93
2018-11-29T05:51:56.693Z,1011.99
2018-11-29T05:53:06.313Z,1011.98
2018-11-29T05:54:15.452Z,1011.89
2018-11-29T05:55:25.147Z,1011.95
2018-11-29T05:56:34.660Z,1011.94
2018-11-29T05:57:44.249Z,1011.94
2018-11-29T05:58:53.476Z,1011.94
2018-11-29T06:00:02.741Z,1011.96
2018-11-29T06:01:12.329Z,1011.98
2018-11-29T06:02:22.165Z,1011.95
2018-11-29T06:03:31.557Z,1011.91
2018-11-29T06:04:40.648Z,1011.93
2018-11-29T06:05:49.973Z,1011.93
2018-11-29T06:06:59.326Z,1011.89
2018-11-29T06:08:08.475Z,1011.93
2018-11-29T06:09:18.114Z,1011.94
2018-11-29T06:10:26.969Z,1011.89
2018-11-29T06:11:36.041Z,1011.97
2018-11-29T06:12:44.853Z,1011.94
2018-11-29T06:13:54.191Z,1011.92
2018-11-29T06:15:03.552Z,1011.92
2018-11-29T06:16:12.821Z,1011.94
2018-11-29T06:17:21.847Z,1011.89
2018-11-29T06:18:31.441Z,1011.89
2018-11-29T06:19:40.810Z,1011.85
2018-11-29T06:20:49.826Z,1011.88
2018-11-29T06:21:58.824Z,1011.88
2018-11-29T06:23:08.498Z,1011.84
2018-11-29T06:24:17.581Z,1011.86
2018-11-29T06:25:26.999Z,1011.82
2018-11-29T06:26:36.801Z,1011.85
2018-11-29T06:27:46.334Z,1011.86
2018-11-29T06:28:55.871Z,1011.77
2018-11-29T06:30:05.145Z,1011.79
2018-11-29T06:31:14.019Z,1011.76
2018-11-29T06:32:23.672Z,1011.77
2018-11-29T06:33:33.131Z,1011.8
2018-11-29T06:34:43.021Z,1011.79
2018-11-29T06:35:52.252Z,1011.82
2018-11-29T06:37:06.862Z,1011.78
2018-11-29T06:38:16.423Z,1011.77
2018-11-29T06:39:25.789Z,1011.69
2018-11-29T06:40:35.186Z,1011.7
2018-11-29T06:41:45.106Z,1011.69
2018-11-29T06:42:54.411Z,1011.7
2018-11-29T06:44:03.714Z,1011.72
2018-11-29T06:45:13.331Z,1011.64
2018-11-29T06:46:22.647Z,1011.68
2018-11-29T06:47:32.725Z,1011.67
2018-11-29T06:48:41.556Z,1011.65
2018-11-29T06:49:51.044Z,1011.66
2018-11-29T06:50:59.924Z,1011.64
2018-11-29T06:52:09.648Z,1011.61
2018-11-29T06:53:19.075Z,1011.6
2018-11-29T06:54:28.679Z,1011.57
2018-11-29T06:55:38.210Z,1011.54
2018-11-29T06:56:47.747Z,1011.51
2018-11-29T06:57:57.038Z,1011.45
2018-11-29T06:59:06.565Z,1011.42
2018-11-29T07:00:16.110Z,1011.4
2018-11-29T07:01:25.613Z,1011.43
2018-11-29T07:02:35.137Z,1011.41
2018-11-29T07:03:44.531Z,1011.38
2018-11-29T07:04:54.151Z,1011.37
2018-11-29T07:06:03.568Z,1011.28
2018-11-29T07:07:13.060Z,1011.28
2018-11-29T07:08:22.923Z,1011.28
2018-11-29T07:09:32.454Z,1011.27
2018-11-29T07:10:42.024Z,1011.25
2018-11-29T07:11:51.605Z,1011.21
2018-11-29T07:13:00.690Z,1011.25
2018-11-29T07:14:09.748Z,1011.23
2018-11-29T07:15:18.821Z,1011.25
2018-11-29T07:16:27.938Z,1011.27
2018-11-29T07:17:38.026Z,1011.31
2018-11-29T07:18:47.143Z,1011.3
2018-11-29T07:19:56.223Z,1011.3
2018-11-29T07:21:06.008Z,1011.25
2018-11-29T07:22:15.425Z,1011.27
2018-11-29T07:23:24.254Z,1011.26
2018-11-29T07:24:33.714Z,1011.29
2018-11-29T07:25:42.791Z,1011.27
2018-11-29T07:26:52.133Z,1011.21
2018-11-29T07:28:02.006Z,1011.22
2018-11-29T07:29:16.710Z,1011.22
2018-11-29T07:30:26.685Z,1011.27
2018-11-29T07:31:36.048Z,1011.23
2018-11-29T07:32:45.125Z,1011.18
2018-11-29T07:33:54.228Z,1011.17
2018-11-29T07:35:04.070Z,1011.18
2018-11-29T07:36:13.453Z,1011.08
2018-11-29T07:37:23.044Z,1011.15
2018-11-29T07:38:32.508Z,1011.08
2018-11-29T07:39:41.825Z,1011.1
2018-11-29T07:40:50.826Z,1011.14
2018-11-29T07:41:59.612Z,1011.08
2018-11-29T07:43:08.902Z,1011.12
2018-11-29T07:44:18.674Z,1011.07
2018-11-29T07:45:27.944Z,1011.08
2018-11-29T07:46:37.039Z,1011.05
2018-11-29T07:47:46.075Z,1011
2018-11-29T07:48:55.349Z,1011.07
2018-11-29T07:50:05.221Z,1011.03
2018-11-29T07:51:15.183Z,1010.96
2018-11-29T07:52:24.510Z,1011
2018-11-29T07:53:34.091Z,1010.97
2018-11-29T07:54:43.507Z,1010.86
2018-11-29T07:55:53.315Z,1010.93
2018-11-29T07:57:02.382Z,1010.96
2018-11-29T07:58:11.503Z,1010.88
2018-11-29T07:59:21.435Z,1010.93
2018-11-29T08:00:31.110Z,1010.86
2018-11-29T08:01:40.463Z,1010.81
2018-11-29T08:02:49.863Z,1010.76
2018-11-29T08:03:59.207Z,1010.75
2018-11-29T08:05:08.852Z,1010.68
2018-11-29T08:06:18.504Z,1010.7
2018-11-29T08:07:27.848Z,1010.65
2018-11-29T08:08:37.710Z,1010.67
2018-11-29T08:09:47.242Z,1010.64
2018-11-29T08:10:56.537Z,1010.73
2018-11-29T08:12:05.643Z,1010.76
2018-11-29T08:13:14.901Z,1010.82
2018-11-29T08:14:24.036Z,1010.82
2018-11-29T08:15:33.467Z,1010.77
2018-11-29T08:16:43.857Z,1010.79
2018-11-29T08:17:52.932Z,1010.83
2018-11-29T08:19:02.181Z,1010.84
2018-11-29T08:20:11.191Z,1010.86
2018-11-29T08:21:20.712Z,1010.85
2018-11-29T08:22:30.248Z,1010.85
2018-11-29T08:23:39.740Z,1010.9
2018-11-29T08:24:50.087Z,1010.97
2018-11-29T08:25:59.463Z,1010.93
2018-11-29T08:27:08.975Z,1010.98
2018-11-29T08:28:18.488Z,1010.96
2018-11-29T08:29:27.317Z,1010.9
2018-11-29T08:30:42.354Z,1010.9
2018-11-29T08:31:51.833Z,1010.89
2018-11-29T08:33:00.902Z,1010.9
2018-11-29T08:34:10.223Z,1010.94
2018-11-29T08:35:19.524Z,1010.96
2018-11-29T08:36:29.145Z,1010.95
2018-11-29T08:37:39.230Z,1010.99
2018-11-29T08:38:48.493Z,1010.99
2018-11-29T08:39:57.743Z,1010.97
2018-11-29T08:41:06.846Z,1011.01
2018-11-29T08:42:16.286Z,1010.96
2018-11-29T08:43:25.127Z,1011
2018-11-29T08:44:35.245Z,1010.99
2018-11-29T08:45:44.093Z,1011
2018-11-29T08:46:53.403Z,1011
2018-11-29T08:48:03.298Z,1011.02
2018-11-29T08:49:12.647Z,1010.95
2018-11-29T08:50:21.882Z,1010.92
2018-11-29T08:51:31.256Z,1010.99
2018-11-29T08:52:40.570Z,1010.94
2018-11-29T08:53:49.885Z,1011.04
2018-11-29T08:54:59.195Z,1011.08
2018-11-29T08:56:08.280Z,1011.08
2018-11-29T08:57:17.346Z,1011.12
2018-11-29T08:58:27.152Z,1011.13
2018-11-29T08:59:36.443Z,1011.18
2018-11-29T09:00:46.643Z,1011.16
2018-11-29T09:01:56.276Z,1011.18
2018-11-29T09:03:06.061Z,1011.18
2018-11-29T09:04:15.923Z,1011.23
2018-11-29T09:05:25.222Z,1011.2
2018-11-29T09:06:39.059Z,1011.22
2018-11-29T09:07:48.587Z,1011.27
2018-11-29T09:08:58.211Z,1011.24
2018-11-29T09:10:07.740Z,1011.27
2018-11-29T09:11:16.799Z,1011.27
2018-11-29T09:12:25.923Z,1011.29
2018-11-29T09:13:35.521Z,1011.27
2018-11-29T09:14:45.031Z,1011.29
2018-11-29T09:15:54.298Z,1011.32
2018-11-29T09:17:03.635Z,1011.33
2018-11-29T09:18:13.233Z,1011.36
2018-11-29T09:19:22.797Z,1011.39
2018-11-29T09:20:32.109Z,1011.4
2018-11-29T09:21:41.940Z,1011.41
2018-11-29T09:22:51.490Z,1011.42
2018-11-29T09:24:00.771Z,1011.4
2018-11-29T09:25:10.333Z,1011.42
2018-11-29T09:26:20.179Z,1011.44
2018-11-29T09:27:29.970Z,1011.35
2018-11-29T09:28:39.560Z,1011.43
2018-11-29T09:29:49.089Z,1011.37
2018-11-29T09:30:57.946Z,1011.37
2018-11-29T09:32:06.997Z,1011.35
2018-11-29T09:33:16.635Z,1011.35
2018-11-29T09:34:26.169Z,1011.31
2018-11-29T09:35:35.759Z,1011.27
2018-11-29T09:36:45.026Z,1011.21
2018-11-29T09:37:54.863Z,1011.12
2018-11-29T09:39:04.800Z,1011.09
2018-11-29T09:40:15.091Z,1011.12
2018-11-29T09:41:24.372Z,1011.13
2018-11-29T09:42:34.641Z,1011.17
2018-11-29T09:43:45.776Z,1011.19
2018-11-29T09:44:55.692Z,1011.19
2018-11-29T09:46:05.582Z,1011.2
2018-11-29T09:47:15.088Z,1011.23
2018-11-29T09:48:25.645Z,1011.16
2018-11-29T09:49:36.323Z,1011.17
2018-11-29T09:50:45.903Z,1011.25
2018-11-29T09:51:55.023Z,1011.18
2018-11-29T09:53:06.196Z,1011.12
2018-11-29T09:54:15.835Z,1011.07
2018-11-29T09:55:24.870Z,1011.05
2018-11-29T09:56:34.121Z,1011.08
2018-11-29T09:57:44.144Z,1011.06
2018-11-29T09:58:54.784Z,1011.05
2018-11-29T10:00:05.437Z,1010.97
2018-11-29T10:01:15.222Z,1010.93
2018-11-29T10:02:25.042Z,1010.95
2018-11-29T10:03:34.382Z,1010.95
2018-11-29T10:04:43.763Z,1010.96
2018-11-29T10:05:53.107Z,1010.96
2018-11-29T10:07:02.467Z,1011
2018-11-29T10:08:12.341Z,1010.93
2018-11-29T10:09:28.416Z,1010.95
2018-11-29T10:10:37.996Z,1010.95
2018-11-29T10:11:47.536Z,1010.88
2018-11-29T10:12:57.348Z,1010.9
2018-11-29T10:14:06.957Z,1010.82
2018-11-29T10:15:16.845Z,1010.83
2018-11-29T10:16:26.230Z,1010.8
2018-11-29T10:17:36.087Z,1010.69
2018-11-29T10:18:45.652Z,1010.68
2018-11-29T10:19:55.247Z,1010.67
2018-11-29T10:21:04.590Z,1010.71
2018-11-29T10:22:13.984Z,1010.69
2018-11-29T10:23:23.607Z,1010.65
2018-11-29T10:24:33.164Z,1010.62
2018-11-29T10:25:42.319Z,1010.48
2018-11-29T10:26:51.405Z,1010.44
2018-11-29T10:28:00.475Z,1010.27
2018-11-29T10:29:09.808Z,1010.2
2018-11-29T10:30:19.625Z,1010.08
2018-11-29T10:31:28.458Z,1010.14
2018-11-29T10:32:37.787Z,1010.11
2018-11-29T10:33:47.363Z,1010.19
2018-11-29T10:34:56.227Z,1010.24
2018-11-29T10:36:05.340Z,1010.31
2018-11-29T10:37:14.940Z,1010.32
2018-11-29T10:38:24.290Z,1010.28
2018-11-29T10:39:34.053Z,1010.25
2018-11-29T10:40:45.152Z,1010.2
2018-11-29T10:41:53.935Z,1010.15
2018-11-29T10:43:03.176Z,1010.06
2018-11-29T10:44:12.756Z,1010
2018-11-29T10:45:22.133Z,1009.96
2018-11-29T10:46:31.030Z,1009.91
2018-11-29T10:47:40.632Z,1009.81
2018-11-29T10:48:56.743Z,1009.7
2018-11-29T10:50:05.833Z,1009.69
2018-11-29T10:51:14.708Z,1009.8
2018-11-29T10:52:24.042Z,1009.73
2018-11-29T10:53:37.112Z,1009.61
2018-11-29T10:54:47.175Z,1009.65
2018-11-29T10:55:56.849Z,1009.6
2018-11-29T10:57:06.116Z,1009.6
2018-11-29T10:58:15.740Z,1009.75
2018-11-29T10:59:24.784Z,1009.99
2018-11-29T11:00:34.819Z,1010.39
2018-11-29T11:01:44.639Z,1010.58
2018-11-29T11:02:53.657Z,1010.68
2018-11-29T11:04:02.695Z,1010.54
2018-11-29T11:05:12.212Z,1010.59
2018-11-29T11:06:21.891Z,1010.79
2018-11-29T11:07:31.735Z,1010.63
2018-11-29T11:08:41.220Z,1010.44
2018-11-29T11:09:50.804Z,1010.51
2018-11-29T11:11:00.939Z,1010.61
2018-11-29T11:12:10.352Z,1010.4
2018-11-29T11:13:23.801Z,1010.34
2018-11-29T11:14:33.348Z,1010.39
2018-11-29T11:15:43.207Z,1010.26
2018-11-29T11:16:52.286Z,1009.97
2018-11-29T11:18:02.106Z,1010.02
2018-11-29T11:19:11.702Z,1010.14
2018-11-29T11:20:21.316Z,1010.2
2018-11-29T11:21:31.575Z,1010.15
2018-11-29T11:22:41.219Z,1010.21
2018-11-29T11:23:51.267Z,1010.23
2018-11-29T11:25:06.338Z,1010.35
2018-11-29T11:26:15.988Z,1010.5
2018-11-29T11:27:25.488Z,1010.4
2018-11-29T11:28:35.362Z,1010.11
2018-11-29T11:29:45.318Z,1009.81
2018-11-29T11:30:54.949Z,1009.64
2018-11-29T11:32:04.283Z,1009.68
2018-11-29T11:33:14.518Z,1009.89
2018-11-29T11:34:24.100Z,1010.02
2018-11-29T11:35:33.422Z,1010.14
2018-11-29T11:36:43.281Z,1010.17
2018-11-29T11:37:53.298Z,1010.3
2018-11-29T11:39:02.823Z,1010.22
2018-11-29T11:40:12.522Z,1010.07
2018-11-29T11:41:21.713Z,1010.12
2018-11-29T11:42:31.073Z,1010.12
2018-11-29T11:43:41.140Z,1009.89
2018-11-29T11:44:51.039Z,1010.05
2018-11-29T11:46:00.674Z,1009.82
2018-11-29T11:47:10.474Z,1009.76
2018-11-29T11:48:19.847Z,1009.8
2018-11-29T11:49:29.162Z,1009.82
2018-11-29T11:50:39.825Z,1009.72
2018-11-29T11:51:50.675Z,1009.74
2018-11-29T11:52:59.702Z,1009.73
2018-11-29T11:54:09.335Z,1009.96
2018-11-29T11:55:19.490Z,1009.97
2018-11-29T11:56:35.011Z,1009.96
2018-11-29T11:57:44.038Z,1009.85
2018-11-29T11:58:53.865Z,1009.86
2018-11-29T12:00:03.290Z,1009.77
2018-11-29T12:01:13.644Z,1009.74
2018-11-29T12:02:27.291Z,1009.84
2018-11-29T12:03:36.524Z,1009.97
2018-11-29T12:04:48.626Z,1009.94
2018-11-29T12:05:58.249Z,1009.56
2018-11-29T12:07:07.816Z,1009.34
2018-11-29T12:08:17.484Z,1009.46
2018-11-29T12:09:26.806Z,1009.16
2018-11-29T12:10:35.701Z,1009.1
2018-11-29T12:11:45.277Z,1008.82
2018-11-29T12:12:54.839Z,1009.46
2018-11-29T12:14:04.929Z,1009.09
2018-11-29T12:15:14.810Z,1008.69
2018-11-29T12:16:24.635Z,1008.58
2018-11-29T12:17:33.956Z,1008.12
2018-11-29T12:18:43.552Z,1007.88
2018-11-29T12:19:53.500Z,1007.5
2018-11-29T12:21:04.191Z,1006.92
2018-11-29T12:22:14.099Z,1006.88
2018-11-29T12:23:25.163Z,1006.76
2018-11-29T12:24:34.834Z,1006.43
2018-11-29T12:25:43.962Z,1006.63
2018-11-29T12:26:53.447Z,1006.54
2018-11-29T12:28:02.836Z,1006.65
2018-11-29T12:29:12.345Z,1006.64
2018-11-29T12:30:22.287Z,1006.71
2018-11-29T12:31:32.125Z,1006.68
2018-11-29T12:32:41.791Z,1007.15
2018-11-29T12:33:50.932Z,1007.77
2018-11-29T12:35:00.363Z,1008.09
2018-11-29T12:36:10.095Z,1008.46
2018-11-29T12:37:20.139Z,1008.69
2018-11-29T12:38:30.134Z,1008.76
2018-11-29T12:39:39.031Z,1008.93
2018-11-29T12:40:48.635Z,1009.11
2018-11-29T12:41:57.955Z,1008.98
2018-11-29T12:43:07.239Z,1009.03
2018-11-29T12:44:17.014Z,1009
2018-11-29T12:45:26.781Z,1008.43
2018-11-29T12:46:35.859Z,1008.42
2018-11-29T12:47:46.573Z,1008.67
2018-11-29T12:48:55.947Z,1008.6
2018-11-29T12:50:05.794Z,1008.56
2018-11-29T12:51:15.071Z,1008.72
2018-11-29T12:52:24.649Z,1008.53
2018-11-29T12:53:34.363Z,1008.64
2018-11-29T12:54:43.669Z,1008.79
2018-11-29T12:55:53.525Z,1008.6
2018-11-29T12:57:02.752Z,1008.26
2018-11-29T12:58:12.510Z,1008.29
2018-11-29T12:59:21.922Z,1008.03
2018-11-29T13:00:31.356Z,1008.12
2018-11-29T13:01:40.925Z,1008.37
2018-11-29T13:02:50.818Z,1008.21
2018-11-29T13:03:59.896Z,1008.23
2018-11-29T13:05:09.375Z,1008.09
2018-11-29T13:06:19.231Z,1008.2
2018-11-29T13:07:28.806Z,1008.2
2018-11-29T13:08:38.159Z,1007.96
2018-11-29T13:09:47.793Z,1007.83
2018-11-29T13:10:56.885Z,1007.75
2018-11-29T13:12:10.770Z,1007.76
2018-11-29T13:13:19.871Z,1007.32
2018-11-29T13:14:32.659Z,1007.34
2018-11-29T13:15:42.457Z,1007.44
2018-11-29T13:16:52.052Z,1007.52
2018-11-29T13:18:01.582Z,1007.88
2018-11-29T13:19:10.916Z,1007.78
2018-11-29T13:20:20.426Z,1007.82
2018-11-29T13:21:35.475Z,1008
2018-11-29T13:22:44.860Z,1007.79
2018-11-29T13:23:59.887Z,1007.59
2018-11-29T13:25:09.741Z,1007.73
2018-11-29T13:26:19.044Z,1007.72
2018-11-29T13:27:27.874Z,1007.75
2018-11-29T13:28:36.884Z,1007.72
2018-11-29T13:29:46.291Z,1007.61
2018-11-29T13:30:56.079Z,1007.73
2018-11-29T13:32:04.909Z,1007.6
2018-11-29T13:33:13.982Z,1007.63
2018-11-29T13:34:23.553Z,1007.5
2018-11-29T13:35:32.524Z,1007.44
2018-11-29T13:36:41.851Z,1007.32
2018-11-29T13:37:51.238Z,1007.31
2018-11-29T13:39:00.505Z,1007.42
2018-11-29T13:40:10.114Z,1007.31
2018-11-29T13:41:20.475Z,1007.31
2018-11-29T13:42:30.182Z,1007.26
2018-11-29T13:43:40.022Z,1007.33
2018-11-29T13:44:49.841Z,1007.28
2018-11-29T13:45:59.151Z,1007.31
2018-11-29T13:47:08.217Z,1007.41
2018-11-29T13:48:18.315Z,1007.43
2018-11-29T13:49:27.456Z,1007.33
2018-11-29T13:50:36.985Z,1007.25
2018-11-29T13:51:46.655Z,1007.08
2018-11-29T13:52:56.301Z,1007.07
2018-11-29T13:54:05.834Z,1007.1
2018-11-29T13:55:15.008Z,1006.95
2018-11-29T13:56:25.151Z,1006.93
2018-11-29T13:57:34.479Z,1006.9
2018-11-29T13:58:43.776Z,1006.89
2018-11-29T13:59:53.034Z,1006.93
2018-11-29T14:01:02.456Z,1006.89
2018-11-29T14:02:11.663Z,1006.84
2018-11-29T14:03:22.384Z,1006.79
2018-11-29T14:04:31.804Z,1006.78
2018-11-29T14:05:40.840Z,1006.74